sensor_id;sensor_type;location;lat;lon;timestamp;pressure;altitude;pressure_sealevel;temperature
45976;BMP280;31696;42.668;23.322;2023-03-11T00:01:48;92911.84;;;21.95
45976;BMP280;31696;42.668;23.322;2023-03-11T00:03:48;92909.22;;;21.97
45976;BMP280;31696;42.668;23.322;2023-03-11T00:05:49;92903.94;;;21.95
45976;BMP280;31696;42.668;23.322;2023-03-11T00:07:49;92899.97;;;21.94
45976;BMP280;31696;42.668;23.322;2023-03-11T00:09:50;92899.97;;;21.94
45976;BMP280;31696;42.668;23.322;2023-03-11T00:11:50;92882.16;;;21.95
45976;BMP280;31696;42.668;23.322;2023-03-11T00:13:51;92886.09;;;21.96
45976;BMP280;31696;42.668;23.322;2023-03-11T00:15:51;92888.06;;;21.95
45976;BMP280;31696;42.668;23.322;2023-03-11T00:17:55;92862.34;;;21.98
45976;BMP280;31696;42.668;23.322;2023-03-11T00:19:55;92865.72;;;22.04
45976;BMP280;31696;42.668;23.322;2023-03-11T00:21:56;92869.69;;;22.07
45976;BMP280;31696;42.668;23.322;2023-03-11T00:23:57;92855.13;;;22.04
45976;BMP280;31696;42.668;23.322;2023-03-11T00:26:00;92869.69;;;22.03
45976;BMP280;31696;42.668;23.322;2023-03-11T00:28:02;92867.66;;;22.02
45976;BMP280;31696;42.668;23.322;2023-03-11T00:30:03;92872.28;;;22.01
45976;BMP280;31696;42.668;23.322;2023-03-11T00:32:04;92868.28;;;22.00
45976;BMP280;31696;42.668;23.322;2023-03-11T00:34:04;92870.28;;;22.00
45976;BMP280;31696;42.668;23.322;2023-03-11T00:36:05;92866.97;;;21.97
45976;BMP280;31696;42.668;23.322;2023-03-11T00:38:06;92868.31;;;21.98
45976;BMP280;31696;42.668;23.322;2023-03-11T00:40:11;92869.66;;;21.99
45976;BMP280;31696;42.668;23.322;2023-03-11T00:42:11;92877.53;;;21.97
45976;BMP280;31696;42.668;23.322;2023-03-11T00:44:12;92880.16;;;21.97
45976;BMP280;31696;42.668;23.322;2023-03-11T00:46:12;92863.03;;;21.98
45976;BMP280;31696;42.668;23.322;2023-03-11T00:48:13;92865.63;;;21.96
45976;BMP280;31696;42.668;23.322;2023-03-11T00:50:15;92851.13;;;21.97
45976;BMP280;31696;42.668;23.322;2023-03-11T00:52:17;92839.88;;;21.97
45976;BMP280;31696;42.668;23.322;2023-03-11T00:54:17;92829.31;;;21.97
45976;BMP280;31696;42.668;23.322;2023-03-11T00:56:18;92818.06;;;21.96
45976;BMP280;31696;42.668;23.322;2023-03-11T00:58:18;92820.72;;;21.96
45976;BMP280;31696;42.668;23.322;2023-03-11T01:00:22;92816.75;;;21.95
45976;BMP280;31696;42.668;23.322;2023-03-11T01:02:23;92822.03;;;21.95
45976;BMP280;31696;42.668;23.322;2023-03-11T01:04:24;92825.31;;;21.96
45976;BMP280;31696;42.668;23.322;2023-03-11T01:06:24;92827.97;;;21.96
45976;BMP280;31696;42.668;23.322;2023-03-11T01:08:26;92821.38;;;21.95
45976;BMP280;31696;42.668;23.322;2023-03-11T01:10:28;92820.72;;;21.96
45976;BMP280;31696;42.668;23.322;2023-03-11T01:12:29;92820.72;;;21.96
45976;BMP280;31696;42.668;23.322;2023-03-11T01:14:31;92820.09;;;21.98
45976;BMP280;31696;42.668;23.322;2023-03-11T01:16:31;92812.13;;;21.96
45976;BMP280;31696;42.668;23.322;2023-03-11T01:18:31;92802.25;;;21.98
45976;BMP280;31696;42.668;23.322;2023-03-11T01:20:34;92791.69;;;21.98
45976;BMP280;31696;42.668;23.322;2023-03-11T01:22:35;92783.78;;;21.98
45976;BMP280;31696;42.668;23.322;2023-03-11T01:24:35;92782.47;;;21.99
45976;BMP280;31696;42.668;23.322;2023-03-11T01:26:38;92775.16;;;21.98
45976;BMP280;31696;42.668;23.322;2023-03-11T01:28:38;92758.63;;;21.95
45976;BMP280;31696;42.668;23.322;2023-03-11T01:30:39;92765.28;;;21.98
45976;BMP280;31696;42.668;23.322;2023-03-11T01:32:40;92765.94;;;21.99
45976;BMP280;31696;42.668;23.322;2023-03-11T01:34:40;92760.00;;;21.98
45976;BMP280;31696;42.668;23.322;2023-03-11T01:36:41;92752.72;;;21.99
45976;BMP280;31696;42.668;23.322;2023-03-11T01:38:41;92746.78;;;21.98
45976;BMP280;31696;42.668;23.322;2023-03-11T01:40:43;92753.41;;;22.01
45976;BMP280;31696;42.668;23.322;2023-03-11T01:42:46;92745.47;;;21.99
45976;BMP280;31696;42.668;23.322;2023-03-11T01:44:46;92727.66;;;22.02
45976;BMP280;31696;42.668;23.322;2023-03-11T01:48:55;92733.56;;;21.98
45976;BMP280;31696;42.668;23.322;2023-03-11T01:50:56;92735.53;;;21.98
45976;BMP280;31696;42.668;23.322;2023-03-11T01:52:56;92740.16;;;21.97
45976;BMP280;31696;42.668;23.322;2023-03-11T01:54:57;92756.00;;;21.95
45976;BMP280;31696;42.668;23.322;2023-03-11T01:56:57;92749.38;;;21.96
45976;BMP280;31696;42.668;23.322;2023-03-11T01:58:58;92748.06;;;21.95
45976;BMP280;31696;42.668;23.322;2023-03-11T02:00:59;92746.06;;;21.96
45976;BMP280;31696;42.668;23.322;2023-03-11T02:03:01;92769.22;;;21.97
45976;BMP280;31696;42.668;23.322;2023-03-11T02:05:03;92759.94;;;21.96
45976;BMP280;31696;42.668;23.322;2023-03-11T02:07:04;92767.25;;;21.98
45976;BMP280;31696;42.668;23.322;2023-03-11T02:09:06;92763.91;;;21.95
45976;BMP280;31696;42.668;23.322;2023-03-11T02:11:09;92778.44;;;21.96
45976;BMP280;31696;42.668;23.322;2023-03-11T02:13:10;92785.09;;;21.99
45976;BMP280;31696;42.668;23.322;2023-03-11T02:15:11;92785.75;;;22.00
45976;BMP280;31696;42.668;23.322;2023-03-11T02:17:12;92786.41;;;21.98
45976;BMP280;31696;42.668;23.322;2023-03-11T02:19:18;92794.31;;;22.00
45976;BMP280;31696;42.668;23.322;2023-03-11T02:21:26;92787.75;;;21.99
45976;BMP280;31696;42.668;23.322;2023-03-11T02:23:33;92789.03;;;22.00
45976;BMP280;31696;42.668;23.322;2023-03-11T02:27:56;92797.63;;;22.01
45976;BMP280;31696;42.668;23.322;2023-03-11T02:29:59;92804.25;;;22.00
45976;BMP280;31696;42.668;23.322;2023-03-11T02:32:02;92806.25;;;21.99
45976;BMP280;31696;42.668;23.322;2023-03-11T02:34:04;92802.94;;;21.99
45976;BMP280;31696;42.668;23.322;2023-03-11T02:36:07;92805.56;;;21.99
45976;BMP280;31696;42.668;23.322;2023-03-11T02:38:27;92799.63;;;21.98
45976;BMP280;31696;42.668;23.322;2023-03-11T02:42:34;92782.47;;;21.99
45976;BMP280;31696;42.668;23.322;2023-03-11T02:44:35;92784.44;;;21.99
45976;BMP280;31696;42.668;23.322;2023-03-11T02:46:37;92793.00;;;21.97
45976;BMP280;31696;42.668;23.322;2023-03-11T02:48:38;92794.34;;;21.98
45976;BMP280;31696;42.668;23.322;2023-03-11T02:50:38;92801.53;;;21.96
45976;BMP280;31696;42.668;23.322;2023-03-11T02:52:39;92818.09;;;21.98
45976;BMP280;31696;42.668;23.322;2023-03-11T02:54:40;92820.09;;;21.98
45976;BMP280;31696;42.668;23.322;2023-03-11T02:56:41;92816.75;;;21.97
45976;BMP280;31696;42.668;23.322;2023-03-11T02:58:44;92819.41;;;21.97
45976;BMP280;31696;42.668;23.322;2023-03-11T03:00:45;92804.91;;;21.98
45976;BMP280;31696;42.668;23.322;2023-03-11T03:02:46;92796.31;;;21.98
45976;BMP280;31696;42.668;23.322;2023-03-11T03:04:51;92800.97;;;21.99
45976;BMP280;31696;42.668;23.322;2023-03-11T03:06:51;92812.78;;;21.96
45976;BMP280;31696;42.668;23.322;2023-03-11T03:08:51;92793.66;;;21.98
45976;BMP280;31696;42.668;23.322;2023-03-11T03:10:52;92817.44;;;22.00
45976;BMP280;31696;42.668;23.322;2023-03-11T03:12:52;92810.19;;;21.98
45976;BMP280;31696;42.668;23.322;2023-03-11T03:14:53;92800.91;;;21.95
45976;BMP280;31696;42.668;23.322;2023-03-11T03:16:54;92804.91;;;21.98
45976;BMP280;31696;42.668;23.322;2023-03-11T03:18:54;92802.94;;;21.99
45976;BMP280;31696;42.668;23.322;2023-03-11T03:20:54;92807.50;;;21.96
45976;BMP280;31696;42.668;23.322;2023-03-11T03:22:55;92802.88;;;21.97
45976;BMP280;31696;42.668;23.322;2023-03-11T03:25:01;92808.16;;;21.97
45976;BMP280;31696;42.668;23.322;2023-03-11T03:27:03;92802.22;;;21.96
45976;BMP280;31696;42.668;23.322;2023-03-11T03:29:04;92816.75;;;21.95
45976;BMP280;31696;42.668;23.322;2023-03-11T03:31:05;92820.72;;;21.94
45976;BMP280;31696;42.668;23.322;2023-03-11T03:33:06;92816.75;;;21.95
45976;BMP280;31696;42.668;23.322;2023-03-11T03:35:07;92812.78;;;21.94
45976;BMP280;31696;42.668;23.322;2023-03-11T03:37:26;92820.06;;;21.94
45976;BMP280;31696;42.668;23.322;2023-03-11T03:39:27;92812.78;;;21.94
45976;BMP280;31696;42.668;23.322;2023-03-11T03:41:27;92793.63;;;21.94
45976;BMP280;31696;42.668;23.322;2023-03-11T03:43:27;92783.75;;;21.94
45976;BMP280;31696;42.668;23.322;2023-03-11T03:45:28;92798.91;;;21.94
45976;BMP280;31696;42.668;23.322;2023-03-11T03:47:28;92798.25;;;21.93
45976;BMP280;31696;42.668;23.322;2023-03-11T03:49:29;92798.25;;;21.95
45976;BMP280;31696;42.668;23.322;2023-03-11T03:51:30;92814.13;;;21.95
45976;BMP280;31696;42.668;23.322;2023-03-11T03:53:56;92790.34;;;21.95
45976;BMP280;31696;42.668;23.322;2023-03-11T03:56:00;92786.38;;;21.96
45976;BMP280;31696;42.668;23.322;2023-03-11T03:58:01;92785.06;;;21.95
45976;BMP280;31696;42.668;23.322;2023-03-11T04:00:06;92783.72;;;21.96
45976;BMP280;31696;42.668;23.322;2023-03-11T04:02:18;92787.72;;;21.97
45976;BMP280;31696;42.668;23.322;2023-03-11T04:04:18;92783.78;;;21.98
45976;BMP280;31696;42.668;23.322;2023-03-11T04:06:22;92778.47;;;21.98
45976;BMP280;31696;42.668;23.322;2023-03-11T04:08:28;92784.44;;;21.99
45976;BMP280;31696;42.668;23.322;2023-03-11T04:10:28;92779.81;;;21.99
45976;BMP280;31696;42.668;23.322;2023-03-11T04:12:29;92792.38;;;21.99
45976;BMP280;31696;42.668;23.322;2023-03-11T04:14:29;92786.41;;;21.98
45976;BMP280;31696;42.668;23.322;2023-03-11T04:16:33;92789.06;;;21.98
45976;BMP280;31696;42.668;23.322;2023-03-11T04:18:43;92795.00;;;21.99
45976;BMP280;31696;42.668;23.322;2023-03-11T04:20:44;92797.66;;;21.99
45976;BMP280;31696;42.668;23.322;2023-03-11T04:22:47;92800.28;;;21.99
45976;BMP280;31696;42.668;23.322;2023-03-11T04:24:48;92803.59;;;22.01
45976;BMP280;31696;42.668;23.322;2023-03-11T04:26:49;92799.66;;;22.02
45976;BMP280;31696;42.668;23.322;2023-03-11T04:28:51;92803.63;;;22.05
45976;BMP280;31696;42.668;23.322;2023-03-11T04:30:51;92799.66;;;22.02
45976;BMP280;31696;42.668;23.322;2023-03-11T04:32:52;92801.59;;;22.00
45976;BMP280;31696;42.668;23.322;2023-03-11T04:34:52;92795.00;;;21.99
45976;BMP280;31696;42.668;23.322;2023-03-11T04:36:53;92803.59;;;21.99
45976;BMP280;31696;42.668;23.322;2023-03-11T04:38:57;92799.59;;;22.00
45976;BMP280;31696;42.668;23.322;2023-03-11T04:40:59;92800.97;;;21.99
45976;BMP280;31696;42.668;23.322;2023-03-11T04:43:00;92801.59;;;22.00
45976;BMP280;31696;42.668;23.322;2023-03-11T04:45:01;92798.94;;;21.98
45976;BMP280;31696;42.668;23.322;2023-03-11T04:47:04;92803.56;;;21.97
45976;BMP280;31696;42.668;23.322;2023-03-11T04:49:04;92798.91;;;21.96
45976;BMP280;31696;42.668;23.322;2023-03-11T04:51:05;92802.22;;;21.96
45976;BMP280;31696;42.668;23.322;2023-03-11T04:53:06;92806.19;;;21.97
45976;BMP280;31696;42.668;23.322;2023-03-11T04:55:07;92798.25;;;21.93
45976;BMP280;31696;42.668;23.322;2023-03-11T04:57:08;92796.25;;;21.96
45976;BMP280;31696;42.668;23.322;2023-03-11T04:59:09;92814.09;;;21.93
45976;BMP280;31696;42.668;23.322;2023-03-11T05:01:12;92802.22;;;21.94
45976;BMP280;31696;42.668;23.322;2023-03-11T05:03:12;92812.78;;;21.94
45976;BMP280;31696;42.668;23.322;2023-03-11T05:05:13;92817.41;;;21.94
45976;BMP280;31696;42.668;23.322;2023-03-11T05:07:14;92823.38;;;21.94
45976;BMP280;31696;42.668;23.322;2023-03-11T05:09:15;92829.97;;;21.95
45976;BMP280;31696;42.668;23.322;2023-03-11T05:11:16;92826.63;;;21.93
45976;BMP280;31696;42.668;23.322;2023-03-11T05:13:19;92840.50;;;21.93
45976;BMP280;31696;42.668;23.322;2023-03-11T05:15:20;92829.94;;;21.93
45976;BMP280;31696;42.668;23.322;2023-03-11T05:17:20;92837.88;;;21.95
45976;BMP280;31696;42.668;23.322;2023-03-11T05:19:22;92836.59;;;21.98
45976;BMP280;31696;42.668;23.322;2023-03-11T05:21:38;92833.31;;;22.00
45976;BMP280;31696;42.668;23.322;2023-03-11T05:23:38;92845.19;;;22.01
45976;BMP280;31696;42.668;23.322;2023-03-11T05:25:39;92844.56;;;22.02
45976;BMP280;31696;42.668;23.322;2023-03-11T05:27:39;92857.78;;;22.04
45976;BMP280;31696;42.668;23.322;2023-03-11T05:29:41;92859.09;;;22.05
45976;BMP280;31696;42.668;23.322;2023-03-11T05:31:44;92857.78;;;22.06
45976;BMP280;31696;42.668;23.322;2023-03-11T05:33:44;92863.09;;;22.06
45976;BMP280;31696;42.668;23.322;2023-03-11T05:35:46;92864.38;;;22.05
45976;BMP280;31696;42.668;23.322;2023-03-11T05:37:47;92851.16;;;22.05
45976;BMP280;31696;42.668;23.322;2023-03-11T05:39:51;92864.41;;;22.03
45976;BMP280;31696;42.668;23.322;2023-03-11T05:41:51;92872.41;;;22.13
45976;BMP280;31696;42.668;23.322;2023-03-11T05:43:52;92855.19;;;22.10
45976;BMP280;31696;42.668;23.322;2023-03-11T05:45:52;92863.09;;;22.06
45976;BMP280;31696;42.668;23.322;2023-03-11T05:47:53;92874.97;;;22.03
45976;BMP280;31696;42.668;23.322;2023-03-11T05:49:55;92871.59;;;22.01
45976;BMP280;31696;42.668;23.322;2023-03-11T05:51:56;92882.94;;;22.09
45976;BMP280;31696;42.668;23.322;2023-03-11T05:53:59;92875.69;;;22.10
45976;BMP280;31696;42.668;23.322;2023-03-11T05:56:08;92876.28;;;22.04
45976;BMP280;31696;42.668;23.322;2023-03-11T05:58:08;92892.19;;;22.10
45976;BMP280;31696;42.668;23.322;2023-03-11T06:00:09;92896.13;;;22.11
45976;BMP280;31696;42.668;23.322;2023-03-11T06:02:20;92894.81;;;22.10
45976;BMP280;31696;42.668;23.322;2023-03-11T06:04:20;92897.44;;;22.08
45976;BMP280;31696;42.668;23.322;2023-03-11T06:06:21;92902.19;;;22.20
45976;BMP280;31696;42.668;23.322;2023-03-11T06:08:22;92916.06;;;22.18
45976;BMP280;31696;42.668;23.322;2023-03-11T06:10:23;92914.03;;;22.15
45976;BMP280;31696;42.668;23.322;2023-03-11T06:12:24;92909.34;;;22.11
45976;BMP280;31696;42.668;23.322;2023-03-11T06:14:42;92912.63;;;22.08
45976;BMP280;31696;42.668;23.322;2023-03-11T06:16:42;92913.31;;;22.08
45976;BMP280;31696;42.668;23.322;2023-03-11T06:18:43;92908.69;;;22.09
45976;BMP280;31696;42.668;23.322;2023-03-11T06:20:44;92914.59;;;22.07
45976;BMP280;31696;42.668;23.322;2023-03-11T06:22:47;92910.66;;;22.06
45976;BMP280;31696;42.668;23.322;2023-03-11T06:24:47;92911.31;;;22.07
45976;BMP280;31696;42.668;23.322;2023-03-11T06:26:50;92909.31;;;22.07
45976;BMP280;31696;42.668;23.322;2023-03-11T06:28:50;92916.63;;;22.11
45976;BMP280;31696;42.668;23.322;2023-03-11T06:30:52;92911.34;;;22.11
45976;BMP280;31696;42.668;23.322;2023-03-11T06:32:52;92915.31;;;22.10
45976;BMP280;31696;42.668;23.322;2023-03-11T06:34:54;92913.31;;;22.10
45976;BMP280;31696;42.668;23.322;2023-03-11T06:36:55;92912.06;;;22.15
45976;BMP280;31696;42.668;23.322;2023-03-11T06:38:56;92908.72;;;22.13
45976;BMP280;31696;42.668;23.322;2023-03-11T06:41:02;92912.00;;;22.09
45976;BMP280;31696;42.668;23.322;2023-03-11T06:43:04;92955.16;;;23.26
45976;BMP280;31696;42.668;23.322;2023-03-11T06:45:07;92961.75;;;23.23
45976;BMP280;31696;42.668;23.322;2023-03-11T06:47:08;92961.16;;;23.32
45976;BMP280;31696;42.668;23.322;2023-03-11T06:49:09;92963.16;;;23.42
45976;BMP280;31696;42.668;23.322;2023-03-11T06:51:11;92959.78;;;23.27
45976;BMP280;31696;42.668;23.322;2023-03-11T06:53:11;92504.44;;;23.46
45976;BMP280;31696;42.668;23.322;2023-03-11T06:55:12;92959.19;;;23.37
45976;BMP280;31696;42.668;23.322;2023-03-11T06:57:15;92961.75;;;23.23
45976;BMP280;31696;42.668;23.322;2023-03-11T06:59:15;92957.75;;;23.12
45976;BMP280;31696;42.668;23.322;2023-03-11T07:01:18;92962.97;;;23.04
45976;BMP280;31696;42.668;23.322;2023-03-11T07:03:19;92966.25;;;23.00
45976;BMP280;31696;42.668;23.322;2023-03-11T07:05:20;92964.28;;;23.01
45976;BMP280;31696;42.668;23.322;2023-03-11T07:07:22;92965.53;;;22.92
45976;BMP280;31696;42.668;23.322;2023-03-11T07:09:23;92968.84;;;22.94
45976;BMP280;31696;42.668;23.322;2023-03-11T07:11:25;92964.97;;;23.01
45976;BMP280;31696;42.668;23.322;2023-03-11T07:13:31;92960.31;;;23.04
45976;BMP280;31696;42.668;23.322;2023-03-11T07:15:31;92969.56;;;23.03
45976;BMP280;31696;42.668;23.322;2023-03-11T07:17:31;92969.59;;;23.09
45976;BMP280;31696;42.668;23.322;2023-03-11T07:19:32;92964.31;;;23.09
45976;BMP280;31696;42.668;23.322;2023-03-11T07:21:32;92956.38;;;23.13
45976;BMP280;31696;42.668;23.322;2023-03-11T07:23:34;92967.66;;;23.11
45976;BMP280;31696;42.668;23.322;2023-03-11T07:25:34;92961.00;;;23.08
45976;BMP280;31696;42.668;23.322;2023-03-11T07:27:35;92948.47;;;23.15
45976;BMP280;31696;42.668;23.322;2023-03-11T07:29:35;92943.16;;;23.13
45976;BMP280;31696;42.668;23.322;2023-03-11T07:31:36;92939.88;;;23.14
45976;BMP280;31696;42.668;23.322;2023-03-11T07:33:36;92936.56;;;23.14
45976;BMP280;31696;42.668;23.322;2023-03-11T07:35:37;92928.56;;;23.06
45976;BMP280;31696;42.668;23.322;2023-03-11T07:37:37;92928.59;;;23.08
45976;BMP280;31696;42.668;23.322;2023-03-11T07:39:38;92923.34;;;23.20
45976;BMP280;31696;42.668;23.322;2023-03-11T07:41:38;92930.03;;;23.33
45976;BMP280;31696;42.668;23.322;2023-03-11T07:43:39;92919.50;;;23.45
45976;BMP280;31696;42.668;23.322;2023-03-11T07:45:40;92920.78;;;23.32
45976;BMP280;31696;42.668;23.322;2023-03-11T07:47:40;92919.44;;;23.29
45976;BMP280;31696;42.668;23.322;2023-03-11T07:49:40;92915.50;;;23.38
45976;BMP280;31696;42.668;23.322;2023-03-11T07:51:41;92915.41;;;23.18
45976;BMP280;31696;42.668;23.322;2023-03-11T07:53:42;92917.44;;;23.27
45976;BMP280;31696;42.668;23.322;2023-03-11T07:55:43;92925.97;;;23.18
45976;BMP280;31696;42.668;23.322;2023-03-11T07:57:45;92916.06;;;23.16
45976;BMP280;31696;42.668;23.322;2023-03-11T07:59:46;92907.47;;;23.16
45976;BMP280;31696;42.668;23.322;2023-03-11T08:01:46;92910.06;;;23.10
45976;BMP280;31696;42.668;23.322;2023-03-11T08:04:34;92894.22;;;23.14
45976;BMP280;31696;42.668;23.322;2023-03-11T08:06:35;92879.66;;;23.15
45976;BMP280;31696;42.668;23.322;2023-03-11T08:08:36;92883.59;;;23.10
45976;BMP280;31696;42.668;23.322;2023-03-11T08:10:36;92874.34;;;23.07
45976;BMP280;31696;42.668;23.322;2023-03-11T08:12:37;92867.72;;;23.08
45976;BMP280;31696;42.668;23.322;2023-03-11T08:14:37;92869.06;;;23.11
45976;BMP280;31696;42.668;23.322;2023-03-11T08:16:38;92871.75;;;23.25
45976;BMP280;31696;42.668;23.322;2023-03-11T08:18:39;92864.56;;;23.42
45976;BMP280;31696;42.668;23.322;2023-03-11T08:20:39;92857.22;;;23.26
45976;BMP280;31696;42.668;23.322;2023-03-11T08:22:40;92855.19;;;23.16
45976;BMP280;31696;42.668;23.322;2023-03-11T08:24:40;92853.88;;;23.19
45976;BMP280;31696;42.668;23.322;2023-03-11T08:26:41;92861.22;;;23.37
45976;BMP280;31696;42.668;23.322;2023-03-11T08:28:42;92845.38;;;23.49
45976;BMP280;31696;42.668;23.322;2023-03-11T08:30:42;92837.44;;;23.55
45976;BMP280;31696;42.668;23.322;2023-03-11T08:32:43;92829.47;;;23.49
45976;BMP280;31696;42.668;23.322;2023-03-11T08:34:43;92838.09;;;23.48
45976;BMP280;31696;42.668;23.322;2023-03-11T08:36:44;92830.13;;;23.44
45976;BMP280;31696;42.668;23.322;2023-03-11T08:38:45;92835.41;;;23.44
45976;BMP280;31696;42.668;23.322;2023-03-11T08:40:45;92825.50;;;23.60
45976;BMP280;31696;42.668;23.322;2023-03-11T08:42:46;92834.78;;;23.45
45976;BMP280;31696;42.668;23.322;2023-03-11T08:44:46;92826.84;;;23.55
45976;BMP280;31696;42.668;23.322;2023-03-11T08:46:46;92826.84;;;23.49
45976;BMP280;31696;42.668;23.322;2023-03-11T08:48:48;92828.13;;;23.44
45976;BMP280;31696;42.668;23.322;2023-03-11T08:50:48;92820.19;;;23.40
45976;BMP280;31696;42.668;23.322;2023-03-11T08:52:49;92824.13;;;23.35
45976;BMP280;31696;42.668;23.322;2023-03-11T08:54:49;92816.19;;;23.35
45976;BMP280;31696;42.668;23.322;2023-03-11T08:56:50;92818.84;;;23.33
45976;BMP280;31696;42.668;23.322;2023-03-11T08:58:50;92816.19;;;23.35
45976;BMP280;31696;42.668;23.322;2023-03-11T09:02:08;92741.25;;;19.58
45976;BMP280;31696;42.668;23.322;2023-03-11T09:04:08;92738.69;;;19.25
45976;BMP280;31696;42.668;23.322;2023-03-11T09:06:10;92741.72;;;20.82
45976;BMP280;31696;42.668;23.322;2023-03-11T09:08:12;92739.34;;;19.25
45976;BMP280;31696;42.668;23.322;2023-03-11T09:10:14;92739.81;;;19.51
45976;BMP280;31696;42.668;23.322;2023-03-11T09:12:15;92736.88;;;20.15
45976;BMP280;31696;42.668;23.322;2023-03-11T09:14:15;92738.63;;;20.46
45976;BMP280;31696;42.668;23.322;2023-03-11T09:16:17;92738.78;;;18.95
45976;BMP280;31696;42.668;23.322;2023-03-11T09:18:17;92740.63;;;17.70
45976;BMP280;31696;42.668;23.322;2023-03-11T09:20:18;92734.50;;;18.78
45976;BMP280;31696;42.668;23.322;2023-03-11T09:22:19;92732.34;;;18.37
45976;BMP280;31696;42.668;23.322;2023-03-11T09:24:19;92737.47;;;18.31
45976;BMP280;31696;42.668;23.322;2023-03-11T09:26:20;92735.69;;;18.71
45976;BMP280;31696;42.668;23.322;2023-03-11T09:28:21;92721.38;;;18.78
45976;BMP280;31696;42.668;23.322;2023-03-11T09:30:21;92727.16;;;19.06
45976;BMP280;31696;42.668;23.322;2023-03-11T09:32:21;92722.63;;;18.13
45976;BMP280;31696;42.668;23.322;2023-03-11T09:34:22;92714.13;;;18.78
45976;BMP280;31696;42.668;23.322;2023-03-11T09:36:23;92721.47;;;18.84
45976;BMP280;31696;42.668;23.322;2023-03-11T09:38:23;92719.47;;;19.16
45976;BMP280;31696;42.668;23.322;2023-03-11T09:40:24;92708.72;;;18.39
45976;BMP280;31696;42.668;23.322;2023-03-11T09:48:36;92720.13;;;18.19
45976;BMP280;31696;42.668;23.322;2023-03-11T09:51:02;92707.38;;;18.69
45976;BMP280;31696;42.668;23.322;2023-03-11T09:55:00;92701.31;;;18.61
45976;BMP280;31696;42.668;23.322;2023-03-11T09:57:02;92693.09;;;19.14
45976;BMP280;31696;42.668;23.322;2023-03-11T09:59:05;92697.34;;;17.98
45976;BMP280;31696;42.668;23.322;2023-03-11T10:01:14;92710.56;;;18.02
45976;BMP280;31696;42.668;23.322;2023-03-11T10:03:34;92689.44;;;18.60
45976;BMP280;31696;42.668;23.322;2023-03-11T10:05:34;92693.50;;;18.63
45976;BMP280;31696;42.668;23.322;2023-03-11T10:07:37;92710.53;;;18.00
45976;BMP280;31696;42.668;23.322;2023-03-11T10:09:42;92710.97;;;17.63
45976;BMP280;31696;42.668;23.322;2023-03-11T10:11:59;92700.97;;;17.85
45976;BMP280;31696;42.668;23.322;2023-03-11T10:16:10;92706.22;;;17.32
45976;BMP280;31696;42.668;23.322;2023-03-11T10:20:28;92721.75;;;16.74
45976;BMP280;31696;42.668;23.322;2023-03-11T10:25:03;92719.84;;;16.77
45976;BMP280;31696;42.668;23.322;2023-03-11T10:27:11;92722.50;;;16.55
45976;BMP280;31696;42.668;23.322;2023-03-11T10:29:27;92724.72;;;16.41
45976;BMP280;31696;42.668;23.322;2023-03-11T10:31:35;92732.47;;;17.32
45976;BMP280;31696;42.668;23.322;2023-03-11T10:35:38;92718.84;;;16.88
45976;BMP280;31696;42.668;23.322;2023-03-11T10:37:39;92713.94;;;16.76
45976;BMP280;31696;42.668;23.322;2023-03-11T10:39:41;92711.22;;;17.22
45976;BMP280;31696;42.668;23.322;2023-03-11T10:41:42;92708.91;;;17.08
45976;BMP280;31696;42.668;23.322;2023-03-11T10:43:44;92712.13;;;17.07
45976;BMP280;31696;42.668;23.322;2023-03-11T10:45:48;92718.84;;;16.64
45976;BMP280;31696;42.668;23.322;2023-03-11T10:47:50;92709.13;;;16.23
45976;BMP280;31696;42.668;23.322;2023-03-11T10:49:50;92715.88;;;16.30
45976;BMP280;31696;42.668;23.322;2023-03-11T10:51:54;92723.28;;;15.14
45976;BMP280;31696;42.668;23.322;2023-03-11T10:53:57;92735.91;;;15.39
45976;BMP280;31696;42.668;23.322;2023-03-11T10:55:58;92735.81;;;15.77
45976;BMP280;31696;42.668;23.322;2023-03-11T10:58:11;92739.53;;;15.69
45976;BMP280;31696;42.668;23.322;2023-03-11T11:00:14;92739.53;;;16.32
45976;BMP280;31696;42.668;23.322;2023-03-11T11:02:28;92744.09;;;16.32
45976;BMP280;31696;42.668;23.322;2023-03-11T11:04:30;92752.66;;;15.91
45976;BMP280;31696;42.668;23.322;2023-03-11T11:06:34;92735.88;;;16.42
45976;BMP280;31696;42.668;23.322;2023-03-11T11:08:34;92746.72;;;16.32
45976;BMP280;31696;42.668;23.322;2023-03-11T11:10:35;92732.38;;;16.35
45976;BMP280;31696;42.668;23.322;2023-03-11T11:12:36;92733.31;;;16.44
45976;BMP280;31696;42.668;23.322;2023-03-11T11:15:12;92724.81;;;16.45
45976;BMP280;31696;42.668;23.322;2023-03-11T11:17:03;92723.56;;;16.46
45976;BMP280;31696;42.668;23.322;2023-03-11T11:19:08;92721.63;;;16.70
45976;BMP280;31696;42.668;23.322;2023-03-11T11:21:12;92715.09;;;16.71
45976;BMP280;31696;42.668;23.322;2023-03-11T11:23:23;92723.94;;;16.60
45976;BMP280;31696;42.668;23.322;2023-03-11T11:27:25;92716.97;;;15.60
45976;BMP280;31696;42.668;23.322;2023-03-11T11:29:26;92717.00;;;15.82
45976;BMP280;31696;42.668;23.322;2023-03-11T11:31:26;92715.16;;;15.06
45976;BMP280;31696;42.668;23.322;2023-03-11T11:33:38;92715.91;;;15.28
45976;BMP280;31696;42.668;23.322;2023-03-11T11:35:46;92695.94;;;15.37
45976;BMP280;31696;42.668;23.322;2023-03-11T11:37:49;92692.38;;;15.28
45976;BMP280;31696;42.668;23.322;2023-03-11T11:39:51;92692.66;;;15.78
45976;BMP280;31696;42.668;23.322;2023-03-11T11:41:52;92679.50;;;15.95
45976;BMP280;31696;42.668;23.322;2023-03-11T11:43:55;92674.78;;;16.13
45976;BMP280;31696;42.668;23.322;2023-03-11T11:46:04;92675.75;;;16.24
45976;BMP280;31696;42.668;23.322;2023-03-11T11:48:10;92677.59;;;16.19
45976;BMP280;31696;42.668;23.322;2023-03-11T11:50:15;92656.63;;;16.17
45976;BMP280;31696;42.668;23.322;2023-03-11T11:52:18;92659.66;;;16.10
45976;BMP280;31696;42.668;23.322;2023-03-11T11:54:42;92650.56;;;16.58
45976;BMP280;31696;42.668;23.322;2023-03-11T11:56:45;92647.38;;;16.62
45976;BMP280;31696;42.668;23.322;2023-03-11T11:58:46;92640.63;;;16.78
45976;BMP280;31696;42.668;23.322;2023-03-11T12:04:50;92645.09;;;16.50
45976;BMP280;31696;42.668;23.322;2023-03-11T12:07:03;92657.25;;;16.63